createdAt,value
2017-07-21T00:00:17.109Z,0
2017-07-21T00:01:17.127Z,0
2017-07-21T00:02:17.115Z,0
2017-07-21T00:03:17.066Z,0
2017-07-21T00:04:17.130Z,0
2017-07-21T00:05:17.036Z,0
2017-07-21T00:06:17.027Z,0
2017-07-21T00:07:17.016Z,0
2017-07-21T00:08:16.387Z,0
2017-07-21T00:09:17.032Z,0
2017-07-21T00:10:16.981Z,0
2017-07-21T00:11:17.024Z,0
2017-07-21T00:12:17.264Z,0
2017-07-21T00:13:17.223Z,0
2017-07-21T00:14:16.904Z,0
2017-07-21T00:15:16.649Z,0
2017-07-21T00:16:16.876Z,0
2017-07-21T00:17:16.887Z,0
2017-07-21T00:18:16.846Z,0
2017-07-21T00:19:16.936Z,0
2017-07-21T00:20:16.814Z,0
2017-07-21T00:21:16.814Z,0
2017-07-21T00:22:17.115Z,0
2017-07-21T00:23:17.107Z,0
2017-07-21T00:24:16.766Z,0
2017-07-21T00:25:17.093Z,0
2017-07-21T00:26:16.546Z,0
2017-07-21T00:27:16.416Z,0
2017-07-21T00:28:16.830Z,0
2017-07-21T00:29:17.022Z,0
2017-07-21T00:30:16.398Z,0
2017-07-21T00:31:16.977Z,0
2017-07-21T00:32:16.956Z,0
2017-07-21T00:33:16.946Z,0
2017-07-21T00:34:16.702Z,0
2017-07-21T00:35:17.020Z,0
2017-07-21T00:36:16.654Z,0
2017-07-21T00:37:16.896Z,0
2017-07-21T00:38:16.376Z,0
2017-07-21T00:39:16.881Z,0
2017-07-21T00:40:16.656Z,0
2017-07-21T00:41:16.830Z,0
2017-07-21T00:42:16.215Z,0
2017-07-21T00:43:16.814Z,0
2017-07-21T00:44:16.808Z,0
2017-07-21T00:45:16.588Z,0
2017-07-21T00:46:15.847Z,0
2017-07-21T00:47:16.750Z,0
2017-07-21T00:48:16.195Z,0
2017-07-21T00:49:16.724Z,0
2017-07-21T00:50:16.116Z,0
2017-07-21T00:51:16.695Z,0
2017-07-21T00:52:16.365Z,0
2017-07-21T00:53:16.372Z,0
2017-07-21T00:57:00.371Z,0
2017-07-21T00:57:16.266Z,0
2017-07-21T00:58:16.299Z,0
2017-07-21T00:59:16.277Z,0
2017-07-21T01:00:16.005Z,0
2017-07-21T01:01:16.588Z,0
2017-07-21T01:02:16.243Z,0
2017-07-21T01:03:16.213Z,0
2017-07-21T01:04:16.187Z,0
2017-07-21T01:05:16.521Z,0
2017-07-21T01:06:15.918Z,0
2017-07-21T01:07:16.161Z,0
2017-07-21T01:08:16.471Z,0
2017-07-21T01:09:16.431Z,0
2017-07-21T01:10:16.433Z,0
2017-07-21T01:11:16.428Z,0
2017-07-21T01:12:16.399Z,0
2017-07-21T01:13:15.463Z,0
2017-07-21T01:14:16.047Z,0
2017-07-21T01:15:16.346Z,0
2017-07-21T01:16:15.814Z,0
2017-07-21T01:17:15.760Z,0
2017-07-21T01:18:15.689Z,0
2017-07-21T01:19:16.001Z,0
2017-07-21T01:20:15.977Z,0
2017-07-21T01:21:15.818Z,0
2017-07-21T01:22:16.261Z,0
2017-07-21T01:23:15.913Z,0
2017-07-21T01:24:15.921Z,0
2017-07-21T01:25:16.030Z,0
2017-07-21T01:26:15.261Z,0
2017-07-21T01:27:15.950Z,0
2017-07-21T01:28:15.854Z,0
2017-07-21T01:29:16.142Z,0
2017-07-21T01:30:15.828Z,0
2017-07-21T01:31:15.500Z,0
2017-07-21T01:32:16.099Z,0
2017-07-21T01:33:16.099Z,0
2017-07-21T01:34:15.775Z,0
2017-07-21T01:35:16.072Z,0
2017-07-21T01:36:15.758Z,0
2017-07-21T01:37:16.049Z,0
2017-07-21T01:38:16.010Z,0
2017-07-21T01:39:15.683Z,0
2017-07-21T01:40:15.772Z,0
2017-07-21T01:41:15.360Z,0
2017-07-21T01:42:15.969Z,0
2017-07-21T01:43:15.625Z,0
2017-07-21T01:44:15.616Z,0
2017-07-21T01:45:15.299Z,0
2017-07-21T01:46:15.889Z,0
2017-07-21T01:47:15.873Z,0
2017-07-21T01:48:15.865Z,0
2017-07-21T01:49:15.841Z,0
2017-07-21T01:50:15.216Z,0
2017-07-21T01:51:15.507Z,0
2017-07-21T01:52:15.816Z,0
2017-07-21T01:53:15.779Z,0
2017-07-21T01:54:15.816Z,0
2017-07-21T01:55:15.129Z,0
2017-07-21T01:56:15.485Z,0
2017-07-21T01:57:15.728Z,0
2017-07-21T01:58:15.717Z,0
2017-07-21T01:59:15.092Z,0
2017-07-21T02:00:15.676Z,0
2017-07-21T02:01:15.812Z,0
2017-07-21T02:02:15.700Z,0
2017-07-21T02:03:15.660Z,0
2017-07-21T02:04:15.822Z,0
2017-07-21T02:05:15.361Z,0
2017-07-21T02:06:15.671Z,0
2017-07-21T02:07:15.590Z,0
2017-07-21T02:08:15.660Z,0
2017-07-21T02:09:15.293Z,0
2017-07-21T02:10:15.617Z,0
2017-07-21T02:11:15.529Z,0
2017-07-21T02:12:14.910Z,0
2017-07-21T02:13:15.208Z,0
2017-07-21T02:14:15.217Z,0
2017-07-21T02:15:14.848Z,0
2017-07-21T02:16:15.561Z,0
2017-07-21T02:17:15.139Z,0
2017-07-21T02:18:14.907Z,0
2017-07-21T02:19:15.103Z,0
2017-07-21T02:20:15.445Z,0
2017-07-21T02:21:15.379Z,0
2017-07-21T02:22:15.558Z,0
2017-07-21T02:23:14.440Z,0
2017-07-21T02:24:15.046Z,0
2017-07-21T02:25:15.330Z,0
2017-07-21T02:26:14.732Z,0
2017-07-21T02:27:15.049Z,0
2017-07-21T02:28:14.698Z,0
2017-07-21T02:29:14.967Z,0
2017-07-21T02:30:14.926Z,0
2017-07-21T02:31:14.646Z,0
2017-07-21T02:32:14.893Z,0
2017-07-21T02:33:14.574Z,0
2017-07-21T02:34:14.889Z,0
2017-07-21T02:35:14.869Z,0
2017-07-21T02:36:14.541Z,0
2017-07-21T02:37:14.831Z,0
2017-07-21T02:38:14.850Z,0
2017-07-21T02:39:14.542Z,0
2017-07-21T02:40:14.511Z,0
2017-07-21T02:41:14.567Z,0
2017-07-21T02:42:14.459Z,0
2017-07-21T02:43:14.447Z,0
2017-07-21T02:44:14.721Z,0
2017-07-21T02:45:14.109Z,0
2017-07-21T02:46:14.990Z,0
2017-07-21T02:47:14.688Z,0
2017-07-21T02:48:14.646Z,0
2017-07-21T02:49:14.646Z,0
2017-07-21T02:50:14.639Z,0
2017-07-21T02:51:14.312Z,0
2017-07-21T02:52:14.641Z,0
2017-07-21T02:53:14.388Z,0
2017-07-21T02:54:14.570Z,0
2017-07-21T02:55:14.560Z,0
2017-07-21T02:56:14.544Z,0
2017-07-21T02:57:14.530Z,0
2017-07-21T02:58:14.515Z,0
2017-07-21T02:59:14.494Z,0
2017-07-21T03:00:13.925Z,0
2017-07-21T03:01:14.509Z,0
2017-07-21T03:02:14.470Z,0
2017-07-21T03:03:13.855Z,0
2017-07-21T03:04:14.440Z,0
2017-07-21T03:05:14.426Z,0
2017-07-21T03:06:14.711Z,0
2017-07-21T03:07:14.382Z,0
2017-07-21T03:08:14.667Z,0
2017-07-21T03:09:13.821Z,0
2017-07-21T03:10:14.354Z,0
2017-07-21T03:11:14.630Z,0
2017-07-21T03:12:14.621Z,0
2017-07-21T03:13:14.586Z,0
2017-07-21T03:14:14.289Z,0
2017-07-21T03:15:14.577Z,0
2017-07-21T03:16:14.552Z,0
2017-07-21T03:17:14.539Z,0
2017-07-21T03:18:14.554Z,0
2017-07-21T03:19:14.519Z,0
2017-07-21T03:20:13.881Z,0
2017-07-21T03:21:14.471Z,0
2017-07-21T03:22:14.464Z,0
2017-07-21T03:23:14.440Z,0
2017-07-21T03:24:14.435Z,0
2017-07-21T03:25:13.869Z,0
2017-07-21T03:26:13.940Z,0
2017-07-21T03:27:14.392Z,0
2017-07-21T03:28:14.393Z,0
2017-07-21T03:29:14.070Z,0
2017-07-21T03:30:13.761Z,0
2017-07-21T03:31:14.354Z,0
2017-07-21T03:32:14.311Z,0
2017-07-21T03:33:14.280Z,0
2017-07-21T03:34:14.043Z,0
2017-07-21T03:35:13.339Z,0
2017-07-21T03:36:13.630Z,0
2017-07-21T03:37:13.619Z,0
2017-07-21T03:38:13.619Z,0
2017-07-21T03:39:13.951Z,0
2017-07-21T03:40:13.970Z,5
2017-07-21T03:41:14.173Z,5
2017-07-21T03:42:13.558Z,5
2017-07-21T03:43:13.863Z,5
2017-07-21T03:44:13.819Z,5
2017-07-21T03:45:14.129Z,5
2017-07-21T03:46:14.090Z,5
2017-07-21T03:47:14.088Z,5
2017-07-21T03:48:14.072Z,5
2017-07-21T03:49:14.060Z,5
2017-07-21T03:50:14.027Z,5
2017-07-21T03:51:14.019Z,5
2017-07-21T03:52:13.992Z,10
2017-07-21T03:53:13.994Z,10
2017-07-21T03:54:14.089Z,10
2017-07-21T03:55:13.348Z,10
2017-07-21T03:56:13.318Z,10
2017-07-21T03:57:13.909Z,10
2017-07-21T03:58:13.890Z,10
2017-07-21T03:59:13.609Z,10
2017-07-21T04:00:13.554Z,10
2017-07-21T04:01:13.230Z,15
2017-07-21T04:02:13.538Z,15
2017-07-21T04:03:13.203Z,15
2017-07-21T04:04:13.508Z,15
2017-07-21T04:05:13.800Z,15
2017-07-21T04:06:13.579Z,15
2017-07-21T04:07:13.482Z,15
2017-07-21T04:08:12.830Z,20
2017-07-21T04:09:12.828Z,20
2017-07-21T04:10:13.809Z,20
2017-07-21T04:11:13.140Z,20
2017-07-21T04:12:13.398Z,20
2017-07-21T04:13:13.072Z,20
2017-07-21T04:14:13.425Z,20
2017-07-21T04:15:13.647Z,20
2017-07-21T04:16:13.674Z,25
2017-07-21T04:17:13.297Z,25
2017-07-21T04:18:13.289Z,25
2017-07-21T04:19:13.004Z,25
2017-07-21T04:20:12.646Z,25
2017-07-21T04:21:13.249Z,25
2017-07-21T04:22:12.927Z,25
2017-07-21T04:23:13.533Z,25
2017-07-21T04:24:13.199Z,25
2017-07-21T04:25:13.567Z,25
2017-07-21T04:26:13.479Z,25
2017-07-21T04:27:13.524Z,30
2017-07-21T04:28:13.428Z,30
2017-07-21T04:29:13.119Z,30
2017-07-21T04:30:12.798Z,30
2017-07-21T04:31:12.800Z,30
2017-07-21T04:32:13.064Z,30
2017-07-21T04:33:13.459Z,30
2017-07-21T04:34:13.079Z,30
2017-07-21T04:35:13.039Z,35
2017-07-21T04:36:12.749Z,35
2017-07-21T04:37:12.999Z,35
2017-07-21T04:38:12.808Z,30
2017-07-21T04:39:12.359Z,30
2017-07-21T04:40:12.939Z,35
2017-07-21T04:41:12.985Z,35
2017-07-21T04:42:12.920Z,35
2017-07-21T04:43:13.192Z,40
2017-07-21T04:44:13.201Z,40
2017-07-21T04:45:12.258Z,40
2017-07-21T04:46:12.549Z,40
2017-07-21T04:47:12.519Z,40
2017-07-21T04:48:12.828Z,40
2017-07-21T04:49:13.141Z,45
2017-07-21T04:50:12.799Z,45
2017-07-21T04:51:12.449Z,45
2017-07-21T04:52:12.791Z,45
2017-07-21T04:53:13.040Z,45
2017-07-21T04:54:13.073Z,50
2017-07-21T04:55:12.398Z,50
2017-07-21T04:56:12.389Z,50
2017-07-21T04:57:12.677Z,50
2017-07-21T04:58:12.369Z,50
2017-07-21T04:59:12.981Z,50
2017-07-21T05:00:12.939Z,50
2017-07-21T05:01:12.951Z,50
2017-07-21T05:02:12.629Z,55
2017-07-21T05:03:12.920Z,55
2017-07-21T05:04:12.869Z,55
2017-07-21T05:05:12.260Z,55
2017-07-21T05:06:12.520Z,55
2017-07-21T05:07:12.864Z,55
2017-07-21T05:08:12.502Z,55
2017-07-21T05:09:12.210Z,60
2017-07-21T05:10:12.779Z,60
2017-07-21T05:11:12.160Z,60
2017-07-21T05:12:12.449Z,60
2017-07-21T05:13:12.114Z,60
2017-07-21T05:14:12.729Z,60
2017-07-21T05:15:11.809Z,60
2017-07-21T05:16:12.382Z,60
2017-07-21T05:17:12.071Z,60
2017-07-21T05:18:12.072Z,60
2017-07-21T05:19:12.329Z,60
2017-07-21T05:20:12.428Z,60
2017-07-21T05:21:12.029Z,60
2017-07-21T05:22:12.648Z,60
2017-07-21T05:23:12.318Z,60
2017-07-21T05:24:12.279Z,65
2017-07-21T05:25:12.249Z,65
2017-07-21T05:26:12.249Z,65
2017-07-21T05:27:12.221Z,65
2017-07-21T05:28:12.299Z,65
2017-07-21T05:29:12.232Z,70
2017-07-21T05:30:12.192Z,70
2017-07-21T05:31:12.167Z,70
2017-07-21T05:32:12.427Z,70
2017-07-21T05:33:11.593Z,70
2017-07-21T05:34:12.120Z,70
2017-07-21T05:35:12.100Z,75
2017-07-21T05:36:12.090Z,75
2017-07-21T05:37:11.767Z,75
2017-07-21T05:38:12.062Z,75
2017-07-21T05:39:12.032Z,75
2017-07-21T05:40:12.318Z,75
2017-07-21T05:41:12.095Z,75
2017-07-21T05:42:12.001Z,80
2017-07-21T05:43:12.131Z,80
2017-07-21T05:44:11.981Z,80
2017-07-21T05:45:12.258Z,80
2017-07-21T05:46:12.268Z,80
2017-07-21T05:47:12.224Z,80
2017-07-21T05:48:11.597Z,80
2017-07-21T05:49:12.200Z,85
2017-07-21T05:50:12.153Z,85
2017-07-21T05:51:11.530Z,85
2017-07-21T05:52:12.170Z,85
2017-07-21T05:53:12.159Z,85
2017-07-21T05:54:11.791Z,85
2017-07-21T05:55:12.129Z,90
2017-07-21T05:56:12.082Z,90
2017-07-21T05:57:12.071Z,90
2017-07-21T05:58:12.091Z,90
2017-07-21T05:59:12.146Z,90
2017-07-21T06:00:12.120Z,90
2017-07-21T06:01:12.007Z,90
2017-07-21T06:02:11.681Z,90
2017-07-21T06:03:10.749Z,95
2017-07-21T06:04:11.378Z,95
2017-07-21T06:05:11.719Z,95
2017-07-21T06:06:11.613Z,95
2017-07-21T06:07:11.959Z,95
2017-07-21T06:08:11.599Z,100
2017-07-21T06:09:11.890Z,100
2017-07-21T06:10:11.570Z,100
2017-07-21T06:11:11.582Z,105
2017-07-21T06:12:11.529Z,105
2017-07-21T06:13:11.557Z,110
2017-07-21T06:14:11.876Z,110
2017-07-21T06:15:11.577Z,110
2017-07-21T06:16:11.485Z,115
2017-07-21T06:17:11.471Z,110
2017-07-21T06:18:11.471Z,115
2017-07-21T06:19:11.421Z,115
2017-07-21T06:20:11.461Z,115
2017-07-21T06:21:11.110Z,115
2017-07-21T06:22:11.390Z,115
2017-07-21T06:23:11.059Z,110
2017-07-21T06:24:11.363Z,110
2017-07-21T06:25:11.659Z,110
2017-07-21T06:26:11.720Z,115
2017-07-21T06:27:11.307Z,110
2017-07-21T06:28:11.670Z,115
2017-07-21T06:29:11.586Z,115
2017-07-21T06:30:11.617Z,115
2017-07-21T06:31:11.546Z,115
2017-07-21T06:32:10.937Z,115
2017-07-21T06:33:11.606Z,115
2017-07-21T06:34:10.927Z,115
2017-07-21T06:35:11.200Z,115
2017-07-21T06:36:10.588Z,115
2017-07-21T06:37:11.482Z,120
2017-07-21T06:38:11.150Z,120
2017-07-21T06:39:11.150Z,120
2017-07-21T06:40:11.137Z,120
2017-07-21T06:41:10.853Z,125
2017-07-21T06:42:10.778Z,125
2017-07-21T06:43:11.058Z,130
2017-07-21T06:44:10.749Z,130
2017-07-21T06:45:11.100Z,130
2017-07-21T06:46:11.356Z,130
2017-07-21T06:47:10.707Z,130
2017-07-21T06:48:11.320Z,130
2017-07-21T06:49:11.295Z,130
2017-07-21T06:50:10.979Z,130
2017-07-21T06:51:10.960Z,140
2017-07-21T06:52:11.288Z,135
2017-07-21T06:53:10.908Z,135
2017-07-21T06:54:10.929Z,130
2017-07-21T06:55:10.350Z,130
2017-07-21T06:56:11.188Z,130
2017-07-21T06:57:10.910Z,130
2017-07-21T06:58:11.166Z,130
2017-07-21T06:59:11.182Z,135
2017-07-21T07:00:10.581Z,135
2017-07-21T07:01:11.130Z,135
2017-07-21T07:02:10.510Z,140
2017-07-21T07:03:10.284Z,140
2017-07-21T07:04:11.073Z,140
2017-07-21T07:05:10.770Z,140
2017-07-21T07:06:10.862Z,140
2017-07-21T07:07:10.728Z,140
2017-07-21T07:08:10.781Z,140
2017-07-21T07:09:10.810Z,140
2017-07-21T07:10:10.526Z,140
2017-07-21T07:11:10.158Z,140
2017-07-21T07:12:10.458Z,140
2017-07-21T07:13:10.711Z,140
2017-07-21T07:14:11.187Z,140
2017-07-21T07:15:10.953Z,140
2017-07-21T07:16:10.614Z,140
2017-07-21T07:17:10.353Z,145
2017-07-21T07:18:10.890Z,145
2017-07-21T07:19:10.568Z,145
2017-07-21T07:20:10.577Z,145
2017-07-21T07:21:10.843Z,145
2017-07-21T07:22:10.835Z,145
2017-07-21T07:23:10.830Z,145
2017-07-21T07:24:10.556Z,145
2017-07-21T07:25:10.525Z,145
2017-07-21T07:26:10.794Z,145
2017-07-21T07:27:10.470Z,145
2017-07-21T07:28:10.776Z,145
2017-07-21T07:29:10.438Z,145
2017-07-21T07:30:10.109Z,145
2017-07-21T07:31:10.413Z,145
2017-07-21T07:32:10.719Z,145
2017-07-21T07:33:10.808Z,145
2017-07-21T07:34:09.882Z,145
2017-07-21T07:35:10.368Z,145
2017-07-21T07:36:10.358Z,150
2017-07-21T07:37:10.777Z,150
2017-07-21T07:38:10.703Z,150
2017-07-21T07:39:10.306Z,150
2017-07-21T07:40:10.364Z,150
2017-07-21T07:41:10.312Z,155
2017-07-21T07:42:10.569Z,155
2017-07-21T07:43:10.000Z,155
2017-07-21T07:44:09.918Z,160
2017-07-21T07:45:10.538Z,160
2017-07-21T07:46:10.553Z,160
2017-07-21T07:47:10.555Z,160
2017-07-21T07:48:09.880Z,160
2017-07-21T07:49:09.852Z,165
2017-07-21T07:50:10.499Z,165
2017-07-21T07:51:09.848Z,175
2017-07-21T07:52:10.102Z,170
2017-07-21T07:53:10.467Z,170
2017-07-21T07:54:09.789Z,175
2017-07-21T07:55:09.770Z,175
2017-07-21T07:56:10.059Z,170
2017-07-21T07:57:10.059Z,170
2017-07-21T07:58:10.040Z,175
2017-07-21T07:59:10.375Z,180
2017-07-21T08:00:09.708Z,180
2017-07-21T08:01:10.312Z,180
2017-07-21T08:02:09.980Z,185
2017-07-21T08:03:09.976Z,185
2017-07-21T08:04:09.672Z,185
2017-07-21T08:05:09.930Z,185
2017-07-21T08:06:09.968Z,195
2017-07-21T08:07:09.634Z,190
2017-07-21T08:08:09.899Z,195
2017-07-21T08:09:09.883Z,195
2017-07-21T08:10:09.600Z,195
2017-07-21T08:11:09.876Z,195
2017-07-21T08:12:10.259Z,195
2017-07-21T08:13:10.164Z,200
2017-07-21T08:14:09.837Z,200
2017-07-21T08:15:09.821Z,200
2017-07-21T08:16:09.816Z,205
2017-07-21T08:17:09.813Z,200
2017-07-21T08:18:09.586Z,210
2017-07-21T08:19:09.770Z,210
2017-07-21T08:20:09.749Z,210
2017-07-21T08:21:10.049Z,215
2017-07-21T08:22:09.721Z,215
2017-07-21T08:23:09.733Z,215
2017-07-21T08:24:10.008Z,220
2017-07-21T08:25:09.984Z,220
2017-07-21T08:26:09.975Z,225
2017-07-21T08:27:09.669Z,225
2017-07-21T08:28:09.959Z,225
2017-07-21T08:29:09.639Z,225
2017-07-21T08:30:09.942Z,225
2017-07-21T08:31:09.629Z,230
2017-07-21T08:32:09.627Z,235
2017-07-21T08:33:09.899Z,235
2017-07-21T08:34:09.883Z,240
2017-07-21T08:35:09.890Z,240
2017-07-21T08:36:09.860Z,250
2017-07-21T08:37:09.872Z,245
2017-07-21T08:38:09.847Z,250
2017-07-21T08:39:09.572Z,255
2017-07-21T08:40:09.841Z,260
2017-07-21T08:41:09.839Z,255
2017-07-21T08:42:09.825Z,260
2017-07-21T08:43:09.812Z,265
2017-07-21T08:44:09.472Z,270
2017-07-21T08:45:09.810Z,275
2017-07-21T08:46:09.805Z,290
2017-07-21T08:47:09.159Z,380
2017-07-21T08:48:09.767Z,520
2017-07-21T08:49:09.452Z,675
2017-07-21T08:50:09.722Z,830
2017-07-21T08:51:09.502Z,1005
2017-07-21T08:52:09.784Z,1190
2017-07-21T08:53:09.711Z,1295
2017-07-21T08:54:09.792Z,960
2017-07-21T08:55:09.392Z,1210
2017-07-21T08:56:09.708Z,1295
2017-07-21T08:57:09.651Z,1320
2017-07-21T08:58:09.669Z,1255
2017-07-21T08:59:09.651Z,1240
2017-07-21T09:00:09.741Z,1270
2017-07-21T09:01:09.652Z,1320
2017-07-21T09:02:09.320Z,1325
2017-07-21T09:03:09.632Z,1280
2017-07-21T09:04:09.047Z,1270
2017-07-21T09:05:09.613Z,1270
2017-07-21T09:06:09.673Z,1245
2017-07-21T09:07:09.607Z,1255
2017-07-21T09:08:09.280Z,1260
2017-07-21T09:09:09.630Z,1235
2017-07-21T09:10:09.572Z,1325
2017-07-21T09:11:09.249Z,1340
2017-07-21T09:12:09.572Z,1230
2017-07-21T09:13:08.968Z,1195
2017-07-21T09:14:09.568Z,1240
2017-07-21T09:15:09.581Z,1235
2017-07-21T09:16:09.257Z,1280
2017-07-21T09:17:09.547Z,1250
2017-07-21T09:18:09.224Z,1280
2017-07-21T09:19:09.243Z,1330
2017-07-21T09:20:09.531Z,1320
2017-07-21T09:21:09.518Z,1320
2017-07-21T09:22:09.523Z,1190
2017-07-21T09:23:09.749Z,1170
2017-07-21T09:24:09.549Z,1280
2017-07-21T09:25:09.550Z,1295
2017-07-21T09:26:09.542Z,1190
2017-07-21T09:27:09.280Z,1165
2017-07-21T09:28:09.533Z,1245
2017-07-21T09:29:09.533Z,1195
2017-07-21T09:30:09.226Z,1220
2017-07-21T09:31:09.542Z,1230
2017-07-21T09:32:09.599Z,1115
2017-07-21T09:33:09.224Z,1215
2017-07-21T09:34:09.225Z,1190
2017-07-21T09:35:09.613Z,1120
2017-07-21T09:36:09.521Z,1115
2017-07-21T09:37:09.167Z,1160
2017-07-21T09:38:09.199Z,1190
2017-07-21T09:39:09.584Z,1120
2017-07-21T09:40:09.190Z,1145
2017-07-21T09:41:09.486Z,1185
2017-07-21T09:42:09.474Z,1135
2017-07-21T09:43:09.149Z,1115
2017-07-21T09:44:09.469Z,1115
2017-07-21T09:45:08.852Z,1035
2017-07-21T09:46:09.178Z,1010
2017-07-21T09:47:09.170Z,1025
2017-07-21T09:48:09.150Z,1040
2017-07-21T09:49:09.157Z,1005
2017-07-21T09:50:09.172Z,1000
2017-07-21T09:51:09.168Z,965
2017-07-21T09:52:09.140Z,980
2017-07-21T09:53:09.429Z,1045
2017-07-21T09:54:09.226Z,1020
2017-07-21T09:55:09.530Z,925
2017-07-21T09:56:09.242Z,930
2017-07-21T09:57:08.818Z,910
2017-07-21T09:58:09.140Z,885
2017-07-21T09:59:09.416Z,870
2017-07-21T10:00:09.141Z,940
2017-07-21T10:01:09.489Z,990
2017-07-21T10:02:09.439Z,970
2017-07-21T10:03:09.429Z,940
2017-07-21T10:04:09.179Z,910
2017-07-21T10:05:09.509Z,915
2017-07-21T10:06:09.408Z,955
2017-07-21T10:07:09.413Z,955
2017-07-21T10:08:09.109Z,850
2017-07-21T10:09:09.401Z,850
2017-07-21T10:10:09.109Z,855
2017-07-21T10:11:09.406Z,830
2017-07-21T10:12:09.398Z,840
2017-07-21T10:13:09.108Z,820
2017-07-21T10:14:08.479Z,820
2017-07-21T10:15:09.078Z,815
2017-07-21T10:16:09.078Z,815
2017-07-21T10:17:08.789Z,770
2017-07-21T10:18:09.100Z,785
2017-07-21T10:19:09.374Z,790
2017-07-21T10:20:09.386Z,770
2017-07-21T10:21:09.373Z,740
2017-07-21T10:22:09.369Z,745
2017-07-21T10:23:09.049Z,745
2017-07-21T10:24:09.374Z,760
2017-07-21T10:25:08.749Z,735
2017-07-21T10:26:09.128Z,730
2017-07-21T10:27:09.019Z,705
2017-07-21T10:28:09.406Z,700
2017-07-21T10:29:09.048Z,700
2017-07-21T10:30:09.431Z,670
2017-07-21T10:31:08.717Z,535
2017-07-21T10:32:09.421Z,360
2017-07-21T10:33:09.347Z,270
2017-07-21T10:34:09.339Z,265
2017-07-21T10:35:09.309Z,265
2017-07-21T10:36:09.108Z,260
2017-07-21T10:37:09.288Z,260
2017-07-21T10:38:09.275Z,260
2017-07-21T10:39:09.297Z,260
2017-07-21T10:40:08.979Z,255
2017-07-21T10:41:09.250Z,255
2017-07-21T10:42:08.664Z,255
2017-07-21T10:43:09.249Z,255
2017-07-21T10:44:09.238Z,260
2017-07-21T10:45:08.325Z,260
2017-07-21T10:46:09.238Z,255
2017-07-21T10:47:09.229Z,260
2017-07-21T10:48:09.207Z,260
2017-07-21T10:49:09.216Z,255
2017-07-21T10:50:09.197Z,255
2017-07-21T10:51:09.205Z,255
2017-07-21T10:52:09.200Z,255
2017-07-21T10:53:08.869Z,255
2017-07-21T10:54:09.176Z,255
2017-07-21T10:55:08.859Z,255
2017-07-21T10:56:08.838Z,250
2017-07-21T10:57:09.157Z,250
2017-07-21T10:58:08.840Z,250
2017-07-21T10:59:08.819Z,250
2017-07-21T11:00:08.529Z,250
2017-07-21T11:01:08.500Z,250
2017-07-21T11:02:08.864Z,250
2017-07-21T11:03:09.189Z,250
2017-07-21T11:04:09.217Z,250
2017-07-21T11:05:09.118Z,250
2017-07-21T11:06:08.481Z,255
2017-07-21T11:07:09.070Z,255
2017-07-21T11:08:08.788Z,230
2017-07-21T11:09:09.064Z,255
2017-07-21T11:10:09.100Z,265
2017-07-21T11:11:08.767Z,165
2017-07-21T11:12:08.124Z,255
2017-07-21T11:13:09.089Z,245
2017-07-21T11:14:09.039Z,245
2017-07-21T11:15:09.077Z,245
2017-07-21T11:16:08.706Z,235
2017-07-21T11:17:08.417Z,235
2017-07-21T11:18:07.769Z,235
2017-07-21T11:19:08.976Z,235
2017-07-21T11:20:08.357Z,235
2017-07-21T11:21:08.975Z,235
2017-07-21T11:22:08.386Z,235
2017-07-21T11:23:08.968Z,235
2017-07-21T11:24:08.654Z,235
2017-07-21T11:25:08.945Z,235
2017-07-21T11:26:08.619Z,240
2017-07-21T11:27:08.306Z,240
2017-07-21T11:28:08.623Z,240
2017-07-21T11:29:08.607Z,235
2017-07-21T11:30:08.277Z,235
2017-07-21T11:31:08.276Z,235
2017-07-21T11:32:08.596Z,235
2017-07-21T11:33:08.887Z,235
2017-07-21T11:34:08.636Z,235
2017-07-21T11:35:08.852Z,240
2017-07-21T11:36:08.855Z,240
2017-07-21T11:37:08.609Z,240
2017-07-21T11:38:08.538Z,240
2017-07-21T11:39:08.837Z,240
2017-07-21T11:40:08.592Z,245
2017-07-21T11:41:08.503Z,245
2017-07-21T11:42:08.189Z,255
2017-07-21T11:43:08.905Z,260
2017-07-21T11:44:08.177Z,260
2017-07-21T11:45:08.885Z,250
2017-07-21T11:46:08.854Z,245
2017-07-21T11:47:08.857Z,240
2017-07-21T11:48:07.858Z,240
2017-07-21T11:49:08.743Z,240
2017-07-21T11:50:08.474Z,235
2017-07-21T11:51:08.118Z,230
2017-07-21T11:52:08.772Z,230
2017-07-21T11:53:08.826Z,230
2017-07-21T11:54:08.716Z,230
2017-07-21T11:55:08.508Z,230
2017-07-21T11:56:08.711Z,230
2017-07-21T11:57:07.771Z,195
2017-07-21T11:58:08.729Z,155
2017-07-21T11:59:08.677Z,225
2017-07-21T12:00:08.365Z,230
2017-07-21T12:01:08.700Z,225
2017-07-21T12:02:08.368Z,225
2017-07-21T12:03:07.776Z,220
2017-07-21T12:04:08.030Z,215
2017-07-21T12:05:08.634Z,215
2017-07-21T12:06:07.697Z,215
2017-07-21T12:07:08.308Z,215
2017-07-21T12:08:07.980Z,210
2017-07-21T12:09:07.986Z,210
2017-07-21T12:10:08.607Z,210
2017-07-21T12:11:08.296Z,210
2017-07-21T12:12:08.257Z,210
2017-07-21T12:13:07.967Z,210
2017-07-21T12:14:08.556Z,125
2017-07-21T12:15:07.925Z,205
2017-07-21T12:16:08.322Z,210
2017-07-21T12:17:08.545Z,205
2017-07-21T12:18:08.528Z,205
2017-07-21T12:19:08.220Z,205
2017-07-21T12:20:07.918Z,205
2017-07-21T12:21:08.311Z,210
2017-07-21T12:22:08.478Z,210
2017-07-21T12:23:08.190Z,210
2017-07-21T12:24:07.861Z,205
2017-07-21T12:25:08.177Z,205
2017-07-21T12:26:08.466Z,205
2017-07-21T12:27:08.197Z,205
2017-07-21T12:28:08.563Z,205
2017-07-21T12:29:08.146Z,205
2017-07-21T12:30:08.137Z,205
2017-07-21T12:31:07.793Z,205
2017-07-21T12:32:08.106Z,205
2017-07-21T12:33:08.113Z,205
2017-07-21T12:34:08.508Z,205
2017-07-21T12:35:08.098Z,205
2017-07-21T12:36:08.088Z,200
2017-07-21T12:37:08.076Z,205
2017-07-21T12:38:08.106Z,205
2017-07-21T12:39:08.391Z,205
2017-07-21T12:40:08.362Z,200
2017-07-21T12:41:08.046Z,200
2017-07-21T12:42:08.036Z,200
2017-07-21T12:43:07.714Z,200
2017-07-21T12:44:07.406Z,200
2017-07-21T12:45:08.002Z,200
2017-07-21T12:46:08.015Z,200
2017-07-21T12:47:07.388Z,200
2017-07-21T12:48:08.301Z,200
2017-07-21T12:49:07.979Z,200
2017-07-21T12:50:07.978Z,200
2017-07-21T12:51:07.980Z,195
2017-07-21T12:52:07.946Z,200
2017-07-21T12:53:08.258Z,205
2017-07-21T12:54:07.927Z,195
2017-07-21T12:55:08.287Z,195
2017-07-21T12:56:07.321Z,195
2017-07-21T12:57:08.229Z,195
2017-07-21T12:58:07.916Z,195
2017-07-21T12:59:07.906Z,195
2017-07-21T13:00:07.588Z,195
2017-07-21T13:01:07.896Z,195
2017-07-21T13:02:07.270Z,195
2017-07-21T13:03:07.873Z,195
2017-07-21T13:04:07.570Z,195
2017-07-21T13:05:07.855Z,195
2017-07-21T13:06:08.238Z,200
2017-07-21T13:07:07.840Z,195
2017-07-21T13:08:07.220Z,195
2017-07-21T13:09:07.538Z,180
2017-07-21T13:10:07.517Z,175
2017-07-21T13:11:07.829Z,120
2017-07-21T13:12:08.179Z,195
2017-07-21T13:13:07.807Z,195
2017-07-21T13:14:07.796Z,195
2017-07-21T13:15:07.232Z,195
2017-07-21T13:16:08.129Z,200
2017-07-21T13:17:08.108Z,195
2017-07-21T13:18:08.166Z,195
2017-07-21T13:19:07.457Z,195
2017-07-21T13:20:07.514Z,195
2017-07-21T13:21:07.436Z,195
2017-07-21T13:22:08.038Z,195
2017-07-21T13:23:07.417Z,195
2017-07-21T13:24:07.117Z,200
2017-07-21T13:25:07.405Z,200
2017-07-21T13:26:07.677Z,195
2017-07-21T13:27:07.396Z,200
2017-07-21T13:28:07.364Z,200
2017-07-21T13:29:07.687Z,195
2017-07-21T13:30:07.656Z,195
2017-07-21T13:31:07.377Z,195
2017-07-21T13:32:07.987Z,200
2017-07-21T13:33:07.340Z,200
2017-07-21T13:34:07.352Z,205
2017-07-21T13:35:07.338Z,145
2017-07-21T13:36:07.607Z,200
2017-07-21T13:37:07.627Z,180
2017-07-21T13:38:07.605Z,140
2017-07-21T13:39:07.896Z,200
2017-07-21T13:40:07.603Z,200
2017-07-21T13:41:07.291Z,200
2017-07-21T13:42:07.593Z,200
2017-07-21T13:43:07.886Z,200
2017-07-21T13:44:07.878Z,200
2017-07-21T13:45:07.278Z,200
2017-07-21T13:46:07.278Z,200
2017-07-21T13:47:07.562Z,195
2017-07-21T13:48:07.548Z,195
2017-07-21T13:49:07.526Z,160
2017-07-21T13:50:07.506Z,140
2017-07-21T13:51:07.826Z,130
2017-07-21T13:52:07.817Z,125
2017-07-21T13:53:07.484Z,200
2017-07-21T13:54:07.516Z,200
2017-07-21T13:55:07.165Z,200
2017-07-21T13:56:07.507Z,195
2017-07-21T13:57:07.168Z,180
2017-07-21T13:58:07.457Z,200
2017-07-21T13:59:07.459Z,125
2017-07-21T14:00:06.847Z,140
2017-07-21T14:01:07.518Z,200
2017-07-21T14:02:07.429Z,200
2017-07-21T14:03:07.722Z,200
2017-07-21T14:04:07.728Z,200
2017-07-21T14:05:07.377Z,200
2017-07-21T14:06:07.886Z,185